sensor_id;sensor_type;location;lat;lon;timestamp;P1;durP1;ratioP1;P2;durP2;ratioP2
25263;SDS011;13211;51.796;5.808;2023-03-04T00:06:49;20.23;;;2.75;;
25263;SDS011;13211;51.796;5.808;2023-03-04T00:09:18;24.20;;;3.13;;
25263;SDS011;13211;51.796;5.808;2023-03-04T00:11:46;25.52;;;2.53;;
25263;SDS011;13211;51.796;5.808;2023-03-04T00:14:14;19.88;;;2.78;;
25263;SDS011;13211;51.796;5.808;2023-03-04T00:16:41;29.02;;;3.65;;
25263;SDS011;13211;51.796;5.808;2023-03-04T00:19:09;27.00;;;2.70;;
25263;SDS011;13211;51.796;5.808;2023-03-04T00:21:37;27.95;;;3.28;;
25263;SDS011;13211;51.796;5.808;2023-03-04T00:24:04;17.73;;;3.03;;
25263;SDS011;13211;51.796;5.808;2023-03-04T00:26:32;22.30;;;3.55;;
25263;SDS011;13211;51.796;5.808;2023-03-04T00:29:00;23.27;;;3.10;;
25263;SDS011;13211;51.796;5.808;2023-03-04T00:31:28;21.65;;;2.17;;
25263;SDS011;13211;51.796;5.808;2023-03-04T00:33:56;17.58;;;2.85;;
25263;SDS011;13211;51.796;5.808;2023-03-04T00:36:24;26.15;;;3.10;;
25263;SDS011;13211;51.796;5.808;2023-03-04T00:38:54;24.15;;;2.33;;
25263;SDS011;13211;51.796;5.808;2023-03-04T00:41:21;18.58;;;2.58;;
25263;SDS011;13211;51.796;5.808;2023-03-04T00:43:50;24.80;;;3.50;;
25263;SDS011;13211;51.796;5.808;2023-03-04T00:46:21;26.73;;;3.15;;
25263;SDS011;13211;51.796;5.808;2023-03-04T00:48:51;21.15;;;2.90;;
25263;SDS011;13211;51.796;5.808;2023-03-04T00:51:18;19.70;;;3.33;;
25263;SDS011;13211;51.796;5.808;2023-03-04T00:53:47;17.63;;;3.10;;
25263;SDS011;13211;51.796;5.808;2023-03-04T00:58:46;27.08;;;2.45;;
25263;SDS011;13211;51.796;5.808;2023-03-04T01:01:14;20.08;;;2.67;;
25263;SDS011;13211;51.796;5.808;2023-03-04T01:03:43;19.90;;;2.22;;
25263;SDS011;13211;51.796;5.808;2023-03-04T01:06:11;26.67;;;3.17;;
25263;SDS011;13211;51.796;5.808;2023-03-04T01:08:39;20.33;;;2.60;;
25263;SDS011;13211;51.796;5.808;2023-03-04T01:11:08;23.60;;;2.97;;
25263;SDS011;13211;51.796;5.808;2023-03-04T01:13:37;24.35;;;2.80;;
25263;SDS011;13211;51.796;5.808;2023-03-04T01:16:06;13.13;;;2.20;;
25263;SDS011;13211;51.796;5.808;2023-03-04T01:18:34;22.73;;;2.70;;
25263;SDS011;13211;51.796;5.808;2023-03-04T01:21:02;20.25;;;2.78;;
25263;SDS011;13211;51.796;5.808;2023-03-04T01:23:30;33.15;;;3.88;;
25263;SDS011;13211;51.796;5.808;2023-03-04T01:26:00;23.77;;;2.95;;
25263;SDS011;13211;51.796;5.808;2023-03-04T01:28:28;18.45;;;2.85;;
25263;SDS011;13211;51.796;5.808;2023-03-04T01:30:56;25.63;;;4.40;;
25263;SDS011;13211;51.796;5.808;2023-03-04T01:33:24;25.88;;;3.53;;
25263;SDS011;13211;51.796;5.808;2023-03-04T01:35:52;24.88;;;2.88;;
25263;SDS011;13211;51.796;5.808;2023-03-04T01:38:22;23.83;;;2.55;;
25263;SDS011;13211;51.796;5.808;2023-03-04T01:40:53;22.33;;;2.58;;
25263;SDS011;13211;51.796;5.808;2023-03-04T01:43:22;19.90;;;3.03;;
25263;SDS011;13211;51.796;5.808;2023-03-04T01:45:51;25.00;;;3.00;;
25263;SDS011;13211;51.796;5.808;2023-03-04T01:48:26;21.55;;;2.63;;
25263;SDS011;13211;51.796;5.808;2023-03-04T01:50:55;27.98;;;2.83;;
25263;SDS011;13211;51.796;5.808;2023-03-04T01:53:26;17.42;;;2.28;;
25263;SDS011;13211;51.796;5.808;2023-03-04T01:55:55;16.98;;;2.50;;
25263;SDS011;13211;51.796;5.808;2023-03-04T01:58:25;19.90;;;2.53;;
25263;SDS011;13211;51.796;5.808;2023-03-04T02:00:55;10.75;;;1.85;;
25263;SDS011;13211;51.796;5.808;2023-03-04T02:03:22;23.48;;;2.70;;
25263;SDS011;13211;51.796;5.808;2023-03-04T02:05:52;19.50;;;2.45;;
25263;SDS011;13211;51.796;5.808;2023-03-04T02:08:21;28.70;;;2.50;;
25263;SDS011;13211;51.796;5.808;2023-03-04T02:10:49;14.25;;;2.53;;
25263;SDS011;13211;51.796;5.808;2023-03-04T02:13:18;26.15;;;3.10;;
25263;SDS011;13211;51.796;5.808;2023-03-04T02:15:46;18.85;;;2.53;;
25263;SDS011;13211;51.796;5.808;2023-03-04T02:18:16;21.98;;;2.92;;
25263;SDS011;13211;51.796;5.808;2023-03-04T02:23:34;17.30;;;2.20;;
25263;SDS011;13211;51.796;5.808;2023-03-04T02:26:14;27.08;;;2.92;;
25263;SDS011;13211;51.796;5.808;2023-03-04T02:28:44;13.65;;;2.60;;
25263;SDS011;13211;51.796;5.808;2023-03-04T02:31:23;16.35;;;2.33;;
25263;SDS011;13211;51.796;5.808;2023-03-04T02:33:51;15.63;;;1.98;;
25263;SDS011;13211;51.796;5.808;2023-03-04T02:36:21;17.85;;;2.65;;
25263;SDS011;13211;51.796;5.808;2023-03-04T02:38:50;21.60;;;3.08;;
25263;SDS011;13211;51.796;5.808;2023-03-04T02:41:20;21.10;;;2.53;;
25263;SDS011;13211;51.796;5.808;2023-03-04T02:43:52;14.82;;;2.47;;
25263;SDS011;13211;51.796;5.808;2023-03-04T02:46:21;13.35;;;2.13;;
25263;SDS011;13211;51.796;5.808;2023-03-04T02:51:21;21.20;;;4.47;;
25263;SDS011;13211;51.796;5.808;2023-03-04T02:53:49;20.70;;;2.00;;
25263;SDS011;13211;51.796;5.808;2023-03-04T02:56:19;16.92;;;2.00;;
25263;SDS011;13211;51.796;5.808;2023-03-04T02:58:48;17.38;;;2.33;;
25263;SDS011;13211;51.796;5.808;2023-03-04T03:01:17;19.42;;;2.85;;
25263;SDS011;13211;51.796;5.808;2023-03-04T03:03:44;20.20;;;2.40;;
25263;SDS011;13211;51.796;5.808;2023-03-04T03:06:12;18.13;;;2.45;;
25263;SDS011;13211;51.796;5.808;2023-03-04T03:08:41;15.55;;;1.90;;
25263;SDS011;13211;51.796;5.808;2023-03-04T03:11:09;15.52;;;2.15;;
25263;SDS011;13211;51.796;5.808;2023-03-04T03:13:38;21.60;;;2.75;;
25263;SDS011;13211;51.796;5.808;2023-03-04T03:16:06;17.48;;;2.47;;
25263;SDS011;13211;51.796;5.808;2023-03-04T03:18:34;18.23;;;2.03;;
25263;SDS011;13211;51.796;5.808;2023-03-04T03:21:03;14.45;;;2.13;;
25263;SDS011;13211;51.796;5.808;2023-03-04T03:23:31;20.00;;;2.40;;
25263;SDS011;13211;51.796;5.808;2023-03-04T03:25:59;25.70;;;2.50;;
25263;SDS011;13211;51.796;5.808;2023-03-04T03:28:27;14.43;;;2.05;;
25263;SDS011;13211;51.796;5.808;2023-03-04T03:30:54;10.02;;;2.00;;
25263;SDS011;13211;51.796;5.808;2023-03-04T03:33:22;23.27;;;2.25;;
25263;SDS011;13211;51.796;5.808;2023-03-04T03:35:51;18.48;;;2.00;;
25263;SDS011;13211;51.796;5.808;2023-03-04T03:38:19;16.08;;;2.03;;
25263;SDS011;13211;51.796;5.808;2023-03-04T03:40:48;18.90;;;2.10;;
25263;SDS011;13211;51.796;5.808;2023-03-04T03:43:17;15.65;;;2.85;;
25263;SDS011;13211;51.796;5.808;2023-03-04T03:45:45;16.08;;;2.10;;
25263;SDS011;13211;51.796;5.808;2023-03-04T03:48:12;18.58;;;2.63;;
25263;SDS011;13211;51.796;5.808;2023-03-04T03:50:40;16.13;;;2.38;;
25263;SDS011;13211;51.796;5.808;2023-03-04T03:53:11;17.45;;;2.60;;
25263;SDS011;13211;51.796;5.808;2023-03-04T03:55:39;18.83;;;2.22;;
25263;SDS011;13211;51.796;5.808;2023-03-04T03:58:07;21.48;;;2.80;;
25263;SDS011;13211;51.796;5.808;2023-03-04T04:00:34;12.45;;;1.95;;
25263;SDS011;13211;51.796;5.808;2023-03-04T04:03:02;19.73;;;2.20;;
25263;SDS011;13211;51.796;5.808;2023-03-04T04:05:30;13.52;;;1.67;;
25263;SDS011;13211;51.796;5.808;2023-03-04T04:07:58;14.68;;;2.42;;
25263;SDS011;13211;51.796;5.808;2023-03-04T04:10:25;14.35;;;2.13;;
25263;SDS011;13211;51.796;5.808;2023-03-04T04:12:53;18.35;;;1.90;;
25263;SDS011;13211;51.796;5.808;2023-03-04T04:15:21;11.07;;;1.55;;
25263;SDS011;13211;51.796;5.808;2023-03-04T04:17:51;16.58;;;2.65;;
25263;SDS011;13211;51.796;5.808;2023-03-04T04:20:22;17.65;;;2.25;;
25263;SDS011;13211;51.796;5.808;2023-03-04T04:22:51;17.88;;;2.10;;
25263;SDS011;13211;51.796;5.808;2023-03-04T04:25:19;13.65;;;2.55;;
25263;SDS011;13211;51.796;5.808;2023-03-04T04:27:48;22.65;;;1.92;;
25263;SDS011;13211;51.796;5.808;2023-03-04T04:30:18;16.27;;;2.20;;
25263;SDS011;13211;51.796;5.808;2023-03-04T04:32:46;15.00;;;2.10;;
25263;SDS011;13211;51.796;5.808;2023-03-04T04:35:14;17.10;;;1.92;;
25263;SDS011;13211;51.796;5.808;2023-03-04T04:37:41;16.13;;;2.20;;
25263;SDS011;13211;51.796;5.808;2023-03-04T04:40:09;18.77;;;2.80;;
25263;SDS011;13211;51.796;5.808;2023-03-04T04:42:37;20.25;;;2.10;;
25263;SDS011;13211;51.796;5.808;2023-03-04T04:45:06;12.73;;;1.80;;
25263;SDS011;13211;51.796;5.808;2023-03-04T04:47:34;16.10;;;2.10;;
25263;SDS011;13211;51.796;5.808;2023-03-04T04:50:02;16.23;;;2.40;;
25263;SDS011;13211;51.796;5.808;2023-03-04T04:52:30;14.63;;;2.10;;
25263;SDS011;13211;51.796;5.808;2023-03-04T04:54:57;16.05;;;2.13;;
25263;SDS011;13211;51.796;5.808;2023-03-04T04:57:25;17.15;;;2.25;;
25263;SDS011;13211;51.796;5.808;2023-03-04T04:59:53;15.07;;;2.30;;
25263;SDS011;13211;51.796;5.808;2023-03-04T05:02:21;11.10;;;1.60;;
25263;SDS011;13211;51.796;5.808;2023-03-04T05:04:48;17.05;;;2.08;;
25263;SDS011;13211;51.796;5.808;2023-03-04T05:07:16;15.65;;;2.67;;
25263;SDS011;13211;51.796;5.808;2023-03-04T05:09:47;14.60;;;2.17;;
25263;SDS011;13211;51.796;5.808;2023-03-04T05:12:16;16.65;;;1.67;;
25263;SDS011;13211;51.796;5.808;2023-03-04T05:14:44;14.98;;;2.20;;
25263;SDS011;13211;51.796;5.808;2023-03-04T05:17:12;20.23;;;1.92;;
25263;SDS011;13211;51.796;5.808;2023-03-04T05:19:41;12.98;;;1.80;;
25263;SDS011;13211;51.796;5.808;2023-03-04T05:22:08;21.60;;;2.03;;
25263;SDS011;13211;51.796;5.808;2023-03-04T05:24:36;13.40;;;2.05;;
25263;SDS011;13211;51.796;5.808;2023-03-04T05:27:05;11.38;;;1.67;;
25263;SDS011;13211;51.796;5.808;2023-03-04T05:29:32;16.90;;;1.80;;
25263;SDS011;13211;51.796;5.808;2023-03-04T05:32:00;14.65;;;1.67;;
25263;SDS011;13211;51.796;5.808;2023-03-04T05:34:28;9.10;;;1.90;;
25263;SDS011;13211;51.796;5.808;2023-03-04T05:36:55;11.02;;;1.65;;
25263;SDS011;13211;51.796;5.808;2023-03-04T05:39:23;18.58;;;1.88;;
25263;SDS011;13211;51.796;5.808;2023-03-04T05:41:51;17.52;;;1.95;;
25263;SDS011;13211;51.796;5.808;2023-03-04T05:44:18;15.30;;;2.05;;
25263;SDS011;13211;51.796;5.808;2023-03-04T05:46:46;21.80;;;2.22;;
25263;SDS011;13211;51.796;5.808;2023-03-04T05:49:14;18.13;;;1.80;;
25263;SDS011;13211;51.796;5.808;2023-03-04T05:51:42;17.85;;;2.25;;
25263;SDS011;13211;51.796;5.808;2023-03-04T05:54:11;10.43;;;1.40;;
25263;SDS011;13211;51.796;5.808;2023-03-04T05:56:39;9.38;;;1.38;;
25263;SDS011;13211;51.796;5.808;2023-03-04T05:59:07;13.25;;;2.03;;
25263;SDS011;13211;51.796;5.808;2023-03-04T06:01:35;8.65;;;1.13;;
25263;SDS011;13211;51.796;5.808;2023-03-04T06:04:02;12.48;;;1.33;;
25263;SDS011;13211;51.796;5.808;2023-03-04T06:06:30;16.40;;;1.80;;
25263;SDS011;13211;51.796;5.808;2023-03-04T06:08:57;15.70;;;2.70;;
25263;SDS011;13211;51.796;5.808;2023-03-04T06:11:26;15.68;;;1.80;;
25263;SDS011;13211;51.796;5.808;2023-03-04T06:13:53;13.98;;;1.73;;
25263;SDS011;13211;51.796;5.808;2023-03-04T06:16:21;13.27;;;1.60;;
25263;SDS011;13211;51.796;5.808;2023-03-04T06:18:49;9.55;;;1.58;;
25263;SDS011;13211;51.796;5.808;2023-03-04T06:21:17;9.70;;;1.60;;
25263;SDS011;13211;51.796;5.808;2023-03-04T06:23:46;13.00;;;1.95;;
25263;SDS011;13211;51.796;5.808;2023-03-04T06:26:14;15.13;;;2.00;;
25263;SDS011;13211;51.796;5.808;2023-03-04T06:28:42;22.70;;;2.03;;
25263;SDS011;13211;51.796;5.808;2023-03-04T06:31:10;10.48;;;1.63;;
25263;SDS011;13211;51.796;5.808;2023-03-04T06:33:38;5.53;;;1.20;;
25263;SDS011;13211;51.796;5.808;2023-03-04T06:36:06;14.30;;;1.65;;
25263;SDS011;13211;51.796;5.808;2023-03-04T06:38:34;10.23;;;1.95;;
25263;SDS011;13211;51.796;5.808;2023-03-04T06:41:08;9.32;;;1.50;;
25263;SDS011;13211;51.796;5.808;2023-03-04T06:43:37;16.73;;;1.80;;
25263;SDS011;13211;51.796;5.808;2023-03-04T06:46:05;12.88;;;1.67;;
25263;SDS011;13211;51.796;5.808;2023-03-04T06:48:33;8.75;;;1.20;;
25263;SDS011;13211;51.796;5.808;2023-03-04T06:51:07;18.05;;;2.78;;
25263;SDS011;13211;51.796;5.808;2023-03-04T06:53:35;17.83;;;1.88;;
25263;SDS011;13211;51.796;5.808;2023-03-04T06:56:03;13.70;;;1.75;;
25263;SDS011;13211;51.796;5.808;2023-03-04T06:58:31;8.38;;;1.65;;
25263;SDS011;13211;51.796;5.808;2023-03-04T07:01:18;18.05;;;1.83;;
25263;SDS011;13211;51.796;5.808;2023-03-04T07:03:47;14.93;;;1.98;;
25263;SDS011;13211;51.796;5.808;2023-03-04T07:06:16;13.43;;;1.67;;
25263;SDS011;13211;51.796;5.808;2023-03-04T07:08:44;16.48;;;1.88;;
25263;SDS011;13211;51.796;5.808;2023-03-04T07:11:13;11.60;;;1.70;;
25263;SDS011;13211;51.796;5.808;2023-03-04T07:13:42;15.15;;;1.88;;
25263;SDS011;13211;51.796;5.808;2023-03-04T07:16:10;11.95;;;1.40;;
25263;SDS011;13211;51.796;5.808;2023-03-04T07:21:10;14.43;;;1.88;;
25263;SDS011;13211;51.796;5.808;2023-03-04T07:23:38;18.55;;;1.63;;
25263;SDS011;13211;51.796;5.808;2023-03-04T07:26:06;11.20;;;1.85;;
25263;SDS011;13211;51.796;5.808;2023-03-04T07:28:34;15.45;;;2.08;;
25263;SDS011;13211;51.796;5.808;2023-03-04T07:33:51;14.40;;;1.75;;
25263;SDS011;13211;51.796;5.808;2023-03-04T07:36:18;18.92;;;1.77;;
25263;SDS011;13211;51.796;5.808;2023-03-04T07:38:48;21.17;;;1.98;;
25263;SDS011;13211;51.796;5.808;2023-03-04T07:41:17;13.02;;;1.90;;
25263;SDS011;13211;51.796;5.808;2023-03-04T07:43:46;15.45;;;1.67;;
25263;SDS011;13211;51.796;5.808;2023-03-04T07:46:14;9.55;;;1.50;;
25263;SDS011;13211;51.796;5.808;2023-03-04T07:48:43;16.23;;;1.77;;
25263;SDS011;13211;51.796;5.808;2023-03-04T07:51:13;8.98;;;1.70;;
25263;SDS011;13211;51.796;5.808;2023-03-04T07:53:41;8.38;;;1.38;;
25263;SDS011;13211;51.796;5.808;2023-03-04T07:56:12;13.18;;;1.42;;
25263;SDS011;13211;51.796;5.808;2023-03-04T07:58:40;8.95;;;1.55;;
25263;SDS011;13211;51.796;5.808;2023-03-04T08:01:12;10.30;;;1.33;;
25263;SDS011;13211;51.796;5.808;2023-03-04T08:03:40;13.45;;;1.70;;
25263;SDS011;13211;51.796;5.808;2023-03-04T08:06:10;10.43;;;1.50;;
25263;SDS011;13211;51.796;5.808;2023-03-04T08:08:38;11.38;;;2.00;;
25263;SDS011;13211;51.796;5.808;2023-03-04T08:11:11;12.82;;;1.73;;
25263;SDS011;13211;51.796;5.808;2023-03-04T08:13:39;16.17;;;1.95;;
25263;SDS011;13211;51.796;5.808;2023-03-04T08:16:07;8.95;;;1.73;;
25263;SDS011;13211;51.796;5.808;2023-03-04T08:18:36;15.25;;;2.80;;
25263;SDS011;13211;51.796;5.808;2023-03-04T08:21:09;14.65;;;2.17;;
25263;SDS011;13211;51.796;5.808;2023-03-04T08:23:37;14.55;;;1.83;;
25263;SDS011;13211;51.796;5.808;2023-03-04T08:26:10;15.50;;;2.10;;
25263;SDS011;13211;51.796;5.808;2023-03-04T08:28:39;21.25;;;2.70;;
25263;SDS011;13211;51.796;5.808;2023-03-04T08:31:09;12.90;;;1.90;;
25263;SDS011;13211;51.796;5.808;2023-03-04T08:33:36;18.17;;;2.15;;
25263;SDS011;13211;51.796;5.808;2023-03-04T08:36:04;12.23;;;2.17;;
25263;SDS011;13211;51.796;5.808;2023-03-04T08:38:32;9.68;;;1.75;;
25263;SDS011;13211;51.796;5.808;2023-03-04T08:41:00;13.88;;;2.13;;
25263;SDS011;13211;51.796;5.808;2023-03-04T08:43:30;13.45;;;2.13;;
25263;SDS011;13211;51.796;5.808;2023-03-04T08:46:00;13.07;;;1.77;;
25263;SDS011;13211;51.796;5.808;2023-03-04T08:48:27;14.90;;;2.03;;
25263;SDS011;13211;51.796;5.808;2023-03-04T08:50:57;21.42;;;2.20;;
25263;SDS011;13211;51.796;5.808;2023-03-04T08:53:25;11.82;;;1.98;;
25263;SDS011;13211;51.796;5.808;2023-03-04T08:55:53;12.68;;;1.60;;
25263;SDS011;13211;51.796;5.808;2023-03-04T08:58:21;17.90;;;1.90;;
25263;SDS011;13211;51.796;5.808;2023-03-04T09:00:49;11.98;;;1.95;;
25263;SDS011;13211;51.796;5.808;2023-03-04T09:03:19;10.98;;;1.70;;
25263;SDS011;13211;51.796;5.808;2023-03-04T09:05:48;10.50;;;1.70;;
25263;SDS011;13211;51.796;5.808;2023-03-04T09:08:16;10.23;;;1.38;;
25263;SDS011;13211;51.796;5.808;2023-03-04T09:10:44;9.77;;;1.27;;
25263;SDS011;13211;51.796;5.808;2023-03-04T09:13:12;11.15;;;1.83;;
25263;SDS011;13211;51.796;5.808;2023-03-04T09:15:45;10.60;;;1.63;;
25263;SDS011;13211;51.796;5.808;2023-03-04T09:18:14;7.05;;;1.20;;
25263;SDS011;13211;51.796;5.808;2023-03-04T09:20:42;10.88;;;1.50;;
25263;SDS011;13211;51.796;5.808;2023-03-04T09:23:10;10.73;;;1.15;;
25263;SDS011;13211;51.796;5.808;2023-03-04T09:25:40;13.02;;;1.67;;
25263;SDS011;13211;51.796;5.808;2023-03-04T09:28:09;11.23;;;1.30;;
25263;SDS011;13211;51.796;5.808;2023-03-04T09:30:37;9.32;;;1.73;;
25263;SDS011;13211;51.796;5.808;2023-03-04T09:33:05;8.50;;;1.40;;
25263;SDS011;13211;51.796;5.808;2023-03-04T09:35:33;7.72;;;1.10;;
25263;SDS011;13211;51.796;5.808;2023-03-04T09:38:00;10.10;;;1.90;;
25263;SDS011;13211;51.796;5.808;2023-03-04T09:40:32;5.97;;;1.15;;
25263;SDS011;13211;51.796;5.808;2023-03-04T09:43:03;7.15;;;1.27;;
25263;SDS011;13211;51.796;5.808;2023-03-04T09:45:50;13.63;;;1.77;;
25263;SDS011;13211;51.796;5.808;2023-03-04T09:48:20;7.30;;;1.40;;
25263;SDS011;13211;51.796;5.808;2023-03-04T09:53:26;4.60;;;1.20;;
25263;SDS011;13211;51.796;5.808;2023-03-04T09:55:54;7.32;;;1.42;;
25263;SDS011;13211;51.796;5.808;2023-03-04T10:01:21;8.68;;;1.33;;
25263;SDS011;13211;51.796;5.808;2023-03-04T10:03:59;6.20;;;1.38;;
25263;SDS011;13211;51.796;5.808;2023-03-04T10:06:30;9.10;;;1.15;;
25263;SDS011;13211;51.796;5.808;2023-03-04T10:09:02;6.10;;;1.20;;
25263;SDS011;13211;51.796;5.808;2023-03-04T10:16:44;8.55;;;1.45;;
25263;SDS011;13211;51.796;5.808;2023-03-04T10:21:41;7.70;;;1.38;;
25263;SDS011;13211;51.796;5.808;2023-03-04T10:24:10;5.57;;;1.23;;
25263;SDS011;13211;51.796;5.808;2023-03-04T10:26:40;7.63;;;1.10;;
25263;SDS011;13211;51.796;5.808;2023-03-04T10:29:12;10.80;;;1.95;;
25263;SDS011;13211;51.796;5.808;2023-03-04T10:31:40;5.57;;;1.38;;
25263;SDS011;13211;51.796;5.808;2023-03-04T10:34:10;6.85;;;1.63;;
25263;SDS011;13211;51.796;5.808;2023-03-04T10:36:42;8.07;;;1.30;;
25263;SDS011;13211;51.796;5.808;2023-03-04T10:39:15;8.40;;;1.50;;
25263;SDS011;13211;51.796;5.808;2023-03-04T10:41:45;7.32;;;1.48;;
25263;SDS011;13211;51.796;5.808;2023-03-04T10:44:20;4.55;;;1.40;;
25263;SDS011;13211;51.796;5.808;2023-03-04T10:46:48;3.08;;;1.20;;
25263;SDS011;13211;51.796;5.808;2023-03-04T10:49:17;5.70;;;1.50;;
25263;SDS011;13211;51.796;5.808;2023-03-04T10:51:48;3.38;;;0.98;;
25263;SDS011;13211;51.796;5.808;2023-03-04T10:54:23;4.20;;;1.02;;
25263;SDS011;13211;51.796;5.808;2023-03-04T10:56:52;6.68;;;1.52;;
25263;SDS011;13211;51.796;5.808;2023-03-04T10:59:32;6.50;;;1.20;;
25263;SDS011;13211;51.796;5.808;2023-03-04T11:02:12;9.07;;;2.67;;
25263;SDS011;13211;51.796;5.808;2023-03-04T11:04:42;4.63;;;0.90;;
25263;SDS011;13211;51.796;5.808;2023-03-04T11:07:10;3.15;;;1.00;;
25263;SDS011;13211;51.796;5.808;2023-03-04T11:09:38;3.17;;;0.93;;
25263;SDS011;13211;51.796;5.808;2023-03-04T11:12:13;2.72;;;1.00;;
25263;SDS011;13211;51.796;5.808;2023-03-04T11:14:44;3.63;;;1.10;;
25263;SDS011;13211;51.796;5.808;2023-03-04T11:17:25;6.78;;;1.00;;
25263;SDS011;13211;51.796;5.808;2023-03-04T11:19:54;3.58;;;0.90;;
25263;SDS011;13211;51.796;5.808;2023-03-04T11:22:23;2.78;;;1.13;;
25263;SDS011;13211;51.796;5.808;2023-03-04T11:24:56;4.97;;;1.08;;
25263;SDS011;13211;51.796;5.808;2023-03-04T11:27:47;3.55;;;0.70;;
25263;SDS011;13211;51.796;5.808;2023-03-04T11:30:33;8.10;;;0.77;;
25263;SDS011;13211;51.796;5.808;2023-03-04T11:38:19;6.88;;;0.90;;
25263;SDS011;13211;51.796;5.808;2023-03-04T11:40:59;4.05;;;1.05;;
25263;SDS011;13211;51.796;5.808;2023-03-04T11:43:36;2.25;;;0.73;;
25263;SDS011;13211;51.796;5.808;2023-03-04T11:57:05;2.90;;;1.10;;
25263;SDS011;13211;51.796;5.808;2023-03-04T12:04:57;2.50;;;1.25;;
25263;SDS011;13211;51.796;5.808;2023-03-04T12:10:11;3.35;;;1.10;;
25263;SDS011;13211;51.796;5.808;2023-03-04T12:15:19;5.15;;;1.20;;
25263;SDS011;13211;51.796;5.808;2023-03-04T12:31:15;3.10;;;0.73;;
25263;SDS011;13211;51.796;5.808;2023-03-04T12:33:58;4.68;;;0.90;;
25263;SDS011;13211;51.796;5.808;2023-03-04T12:44:14;1.95;;;0.82;;
25263;SDS011;13211;51.796;5.808;2023-03-04T12:51:54;6.82;;;1.23;;
25263;SDS011;13211;51.796;5.808;2023-03-04T12:54:36;8.55;;;1.50;;
25263;SDS011;13211;51.796;5.808;2023-03-04T12:57:17;3.78;;;1.10;;
25263;SDS011;13211;51.796;5.808;2023-03-04T13:10:15;3.10;;;0.90;;
25263;SDS011;13211;51.796;5.808;2023-03-04T13:12:47;2.20;;;0.80;;
25263;SDS011;13211;51.796;5.808;2023-03-04T13:15:26;1.75;;;0.90;;
25263;SDS011;13211;51.796;5.808;2023-03-04T13:20:41;5.13;;;0.98;;
25263;SDS011;13211;51.796;5.808;2023-03-04T13:25:46;6.38;;;1.20;;
25263;SDS011;13211;51.796;5.808;2023-03-04T13:28:18;5.05;;;1.60;;
25263;SDS011;13211;51.796;5.808;2023-03-04T13:35:57;4.93;;;0.90;;
25263;SDS011;13211;51.796;5.808;2023-03-04T13:57:15;8.88;;;1.42;;
25263;SDS011;13211;51.796;5.808;2023-03-04T13:59:45;12.23;;;1.35;;
25263;SDS011;13211;51.796;5.808;2023-03-04T14:02:17;6.05;;;1.23;;
25263;SDS011;13211;51.796;5.808;2023-03-04T14:04:58;6.97;;;1.20;;
25263;SDS011;13211;51.796;5.808;2023-03-04T14:07:26;7.32;;;1.48;;
25263;SDS011;13211;51.796;5.808;2023-03-04T14:10:05;5.47;;;1.30;;
25263;SDS011;13211;51.796;5.808;2023-03-04T14:12:34;10.73;;;1.27;;
25263;SDS011;13211;51.796;5.808;2023-03-04T14:15:14;9.07;;;1.38;;
25263;SDS011;13211;51.796;5.808;2023-03-04T14:17:50;7.38;;;1.52;;
25263;SDS011;13211;51.796;5.808;2023-03-04T14:20:26;9.35;;;1.38;;
25263;SDS011;13211;51.796;5.808;2023-03-04T14:22:56;10.63;;;1.33;;
25263;SDS011;13211;51.796;5.808;2023-03-04T14:25:34;8.60;;;1.67;;
25263;SDS011;13211;51.796;5.808;2023-03-04T14:28:09;11.80;;;1.63;;
25263;SDS011;13211;51.796;5.808;2023-03-04T14:30:41;13.40;;;1.33;;
25263;SDS011;13211;51.796;5.808;2023-03-04T14:33:14;7.57;;;1.40;;
25263;SDS011;13211;51.796;5.808;2023-03-04T14:35:47;9.35;;;1.30;;
25263;SDS011;13211;51.796;5.808;2023-03-04T14:38:18;8.90;;;1.45;;
25263;SDS011;13211;51.796;5.808;2023-03-04T14:40:49;10.10;;;1.27;;
25263;SDS011;13211;51.796;5.808;2023-03-04T14:45:50;8.13;;;1.88;;
25263;SDS011;13211;51.796;5.808;2023-03-04T14:53:20;12.25;;;1.83;;
25263;SDS011;13211;51.796;5.808;2023-03-04T14:58:27;5.63;;;0.95;;
25263;SDS011;13211;51.796;5.808;2023-03-04T15:04:02;7.65;;;1.40;;
25263;SDS011;13211;51.796;5.808;2023-03-04T15:06:32;9.95;;;1.20;;
25263;SDS011;13211;51.796;5.808;2023-03-04T15:09:04;8.40;;;1.23;;
25263;SDS011;13211;51.796;5.808;2023-03-04T15:11:43;10.25;;;1.60;;
25263;SDS011;13211;51.796;5.808;2023-03-04T15:16:58;19.70;;;1.95;;
25263;SDS011;13211;51.796;5.808;2023-03-04T15:19:26;9.90;;;1.50;;
25263;SDS011;13211;51.796;5.808;2023-03-04T15:22:04;10.05;;;2.05;;
25263;SDS011;13211;51.796;5.808;2023-03-04T15:24:32;8.75;;;1.50;;
25263;SDS011;13211;51.796;5.808;2023-03-04T15:27:01;12.48;;;1.80;;
25263;SDS011;13211;51.796;5.808;2023-03-04T15:29:33;8.90;;;1.20;;
25263;SDS011;13211;51.796;5.808;2023-03-04T15:32:01;8.13;;;1.73;;
25263;SDS011;13211;51.796;5.808;2023-03-04T15:34:29;7.53;;;1.10;;
25263;SDS011;13211;51.796;5.808;2023-03-04T15:36:57;10.23;;;2.25;;
25263;SDS011;13211;51.796;5.808;2023-03-04T15:39:26;10.93;;;1.63;;
25263;SDS011;13211;51.796;5.808;2023-03-04T15:41:53;7.47;;;1.48;;
25263;SDS011;13211;51.796;5.808;2023-03-04T15:44:21;6.88;;;1.33;;
25263;SDS011;13211;51.796;5.808;2023-03-04T15:46:49;8.63;;;1.20;;
25263;SDS011;13211;51.796;5.808;2023-03-04T15:49:17;5.88;;;1.17;;
25263;SDS011;13211;51.796;5.808;2023-03-04T15:51:46;3.88;;;1.08;;
25263;SDS011;13211;51.796;5.808;2023-03-04T15:54:16;10.65;;;1.90;;
25263;SDS011;13211;51.796;5.808;2023-03-04T15:56:44;4.18;;;1.17;;
25263;SDS011;13211;51.796;5.808;2023-03-04T15:59:12;7.50;;;1.38;;
25263;SDS011;13211;51.796;5.808;2023-03-04T16:01:40;7.88;;;1.40;;
25263;SDS011;13211;51.796;5.808;2023-03-04T16:04:12;7.20;;;1.70;;
25263;SDS011;13211;51.796;5.808;2023-03-04T16:06:42;3.45;;;0.80;;
25263;SDS011;13211;51.796;5.808;2023-03-04T16:09:11;8.07;;;1.25;;
25263;SDS011;13211;51.796;5.808;2023-03-04T16:11:41;3.80;;;0.90;;
25263;SDS011;13211;51.796;5.808;2023-03-04T16:14:12;4.75;;;1.23;;
25263;SDS011;13211;51.796;5.808;2023-03-04T16:16:40;6.13;;;0.82;;
25263;SDS011;13211;51.796;5.808;2023-03-04T16:19:09;5.88;;;0.90;;
25263;SDS011;13211;51.796;5.808;2023-03-04T16:21:37;8.27;;;1.30;;
25263;SDS011;13211;51.796;5.808;2023-03-04T16:24:05;8.88;;;1.45;;
25263;SDS011;13211;51.796;5.808;2023-03-04T16:26:36;10.35;;;1.95;;
25263;SDS011;13211;51.796;5.808;2023-03-04T16:29:08;8.38;;;1.70;;
25263;SDS011;13211;51.796;5.808;2023-03-04T16:31:36;5.20;;;1.25;;
25263;SDS011;13211;51.796;5.808;2023-03-04T16:34:04;6.40;;;1.10;;
25263;SDS011;13211;51.796;5.808;2023-03-04T16:36:32;11.52;;;1.48;;
25263;SDS011;13211;51.796;5.808;2023-03-04T16:39:03;12.20;;;1.75;;
25263;SDS011;13211;51.796;5.808;2023-03-04T16:41:35;11.52;;;1.70;;
25263;SDS011;13211;51.796;5.808;2023-03-04T16:44:02;10.20;;;2.45;;
25263;SDS011;13211;51.796;5.808;2023-03-04T16:46:34;11.80;;;1.70;;
25263;SDS011;13211;51.796;5.808;2023-03-04T16:49:02;7.07;;;1.05;;
25263;SDS011;13211;51.796;5.808;2023-03-04T16:51:30;6.65;;;1.20;;
25263;SDS011;13211;51.796;5.808;2023-03-04T16:54:01;6.30;;;1.08;;
25263;SDS011;13211;51.796;5.808;2023-03-04T16:56:28;9.52;;;1.30;;
25263;SDS011;13211;51.796;5.808;2023-03-04T16:58:56;13.63;;;1.58;;
25263;SDS011;13211;51.796;5.808;2023-03-04T17:01:26;8.73;;;1.88;;
25263;SDS011;13211;51.796;5.808;2023-03-04T17:03:54;11.10;;;1.90;;
25263;SDS011;13211;51.796;5.808;2023-03-04T17:06:23;13.93;;;1.77;;
25263;SDS011;13211;51.796;5.808;2023-03-04T17:08:53;12.15;;;1.80;;
25263;SDS011;13211;51.796;5.808;2023-03-04T17:11:22;9.52;;;2.10;;
25263;SDS011;13211;51.796;5.808;2023-03-04T17:13:51;11.05;;;2.03;;